Kempner, Texas
Current Conditions -  °F | °C
As of 3:15 PM on Friday 19 Dec 2014 (Local Time) from KLZZ Reporting Station
Overcast Overcast  
Wind Chill: 50°   Ceiling: 1200
Heat Index: 50°   Visibility: 10mi
Dew Point: 47°   Wind: 7mph
Humidity: 89%   Direction: 340°NNW
Pressure: 30.11"   Gusts: NA
Location:  31.08°N, 98°W
Report Text: KLZZ 192115Z AUTO 34006KT 10SM OVC012 10/09 A3011 RMK AO2 T01020085
Loading
Personal Weather Stations






























Interactive Weather Map New forecast layout! Learn more

10-Day Weather Forecast

Advertisements
Track Severe Weather on mobile